Naps Table

Friday October 19th

Friday October 19th Naps Table
Selection Race Tipster W L £1 Stake Sky Bet
Percy Drake 13:45 Red Daily Star Sunday Moorestyle 0 13 -24.06476 25/126.00
Improvising (IRE) 13:45 Red Yorkshire Evening Post Lee Sobot 0 5 -28.52472 3/14.00
Absolute Dream (IRE) 14:15 Red Glasgow Evening Times Jeffrey Ross 0 2 +1.671001 9/43.25
Icario (FR) 14:45 Red attheraces.com Lawrence Taylor 0 11 +25.341025 5/16.00
Soldier To Follow 14:45 Red The Sun Templegate 0 1 -6.72494 11/43.75
Contrebasse 14:45 Red The Times Rob Wright 0 6 -13.8487 14/115.00
Soldier To Follow 14:45 Red sportinglife.com 0 4 -26.09474 11/43.75
Soldier To Follow 14:45 Red Daily Record Garry Owen 0 1 -39.87461 11/43.75
Soldier To Follow 14:45 Red Scottish Sun Jim Delahunt 0 10 -51.26449 11/43.75
Canyouringmeback (IRE) 14:55 Wctn Oxford Mail Mark Edwards 1 0 -22.01478 10/34.33
Lord Oberon 15:05 Hayd The Sun On Sunday Sirius 0 12 +13.661013 9/43.25
Lord Oberon 15:05 Hayd The Scotsman Glendale 0 4 -16.72484 9/43.25
Lord Oberon 15:05 Hayd Sunday Mail Rockavon 0 3 -28.28472 9/43.25
Lord Oberon 15:05 Hayd The i Jon Freeman 0 3 -29.88471 9/43.25
Confessional 15:05 Hayd Yorkshire Post The Duke 0 1 -45.61455 11/112.00
Mobsta (IRE) 15:05 Hayd The Leader Charlie Croasdale 0 5 -63.2437 15/28.50
Equus Amadeus (IRE) 15:25 Wctn Scottish Express Chris Goulding 0 1 +4.571004 7/18.00
Shufoog 15:25 Wctn Racing Post Lambourn 0 8 -15.09485 15/28.50
Lovato (GER) 15:25 Wctn Sunday Telegraph Whistler 0 8 -24.79476 4/15.00
Cabernet D'Alene (FR) 15:25 Wctn Irish Post Karl Hedley 0 51 -84.33416 14/115.00
Fastar (IRE) 15:35 Hayd Morning Star Farringdon 1 0 +27.631027 11/26.50
Fastar (IRE) 15:35 Hayd Weekender Paul Kealy 0 12 +4.141004 11/26.50
Queen Penn 15:35 Hayd Sunday Express Jason Heavey 1 0 -3.0497 16/117.00
Crownthorpe 15:35 Hayd Racing and Football Outlook Andrew Mount 1 0 -8.55492 12/113.00
Sod's Law 15:35 Hayd Racing UK The Score 1 0 -11.29489 11/43.75
Crownthorpe 15:35 Hayd Racing Post RP Ratings 2 0 -37.46463 12/113.00
Queen Penn 15:35 Hayd Star Andrew Bladen 0 18 -40.0460 16/117.00
Alemaratalyoum (IRE) 15:35 Hayd Liverpool Echo Chris Wright 0 2 -40.98460 11/26.50
Sod's Law 15:35 Hayd The Guardian 0 18 -42.41458 11/43.75
Mon Port (IRE) 15:40 Fak The Star 0 7 -17.54483 2/71.29
Mon Port (IRE) 15:40 Fak Daily Post Mercury 0 1 -27.91473 2/71.29
Zodiakos (IRE) 15:50 Red Sheffield Star Fortunatus 2 0 +19.671019 10/111.00
Grinty (IRE) 15:50 Red Glasgow Herald PicksfromthePaddock 0 8 -9.66491 13/27.50
The Boola Bee (IRE) 15:55 Wctn Gloucestershire Echo Melissa Jones 0 4 +28.031028 11/26.50
Slipstream (IRE) 16:20 Red Belfast Newsletter Wise Owl 0 4 -19.93481 7/24.50
Young John (IRE) 16:20 Red Daily Mirror Newsboy 0 2 -37.55463 4/15.00
Beau Sancy (FR) 16:30 Wctn Daily Telegraph Marlborough 0 5 -25.52475 10/111.91
Lomachenko (IRE) 16:45 Fak The Press, York Ebor 0 6 +2.681002 9/43.25
Decima (IRE) 17:25 Red Daily Express The Scout 0 1 -13.85487 10/111.00
Decima (IRE) 17:25 Red Racing Post Postdata 0 1 -18.38482 10/111.00
Buonarroti (IRE) 17:50 Hayd Racing Post Spotlight 0 7 -36.91464 5/16.00
Eagle Song (IRE) 18:00 Dun Irish Herald Ian Gaughran 1 0 -44.92456 11/43.75
Northern Lyte 18:15 Newc Western Morning News West Tip 1 0 -53.91447 10/111.00
Private View 18:45 Newc Racing Post Newmarket 1 0 -6.89494 7/24.50
Counter Spirit (IRE) 18:45 Newc Sky Sports News Alex Hammond 0 10 -34.43466 6/42.50
Bouquet Garni (IRE) 19:00 Dun Irish Daily Star Brian Flanagan 0 1 -22.99478 7/24.50
Heir of Excitement (IRE) 19:45 Newc Racing Post The North 0 13 +19.461019 16/117.00
Sumner Beach 19:45 Newc Daily Mail Robin Goodfellow 0 8 -42.86458 6/17.00
Hit The Bid 20:00 Dun The Irish Sun 0 16 -87.45413 5/16.00
Kibaar 20:45 Newc The Irish Field Rory Delargy 0 1 +29.721029 12/113.00
Windforpower (IRE) 20:45 Newc Shropshire Star Andy Morris 0 4 -47.98453 12/113.00

© Racing Post